Time;durP1;ratioP1;P1;durP2;ratioP2;P2;SDS_P1;SDS_P2;PMS_P1;PMS_P2;Temp;Humidity;BMP_temperature;BMP_pressure;BME280_temperature;BME280_humidity;BME280_pressure;Samples;Min_cycle;Max_cycle;Signal;HPM_P1;HPM_P2
2021/07/16 00:02:12;;;;;;;8.95;3.00;;;;;;;26.17;48.01;99440.53;5061248;28;20029;-74
2021/07/16 00:04:37;;;;;;;9.98;3.40;;;;;;;26.18;48.06;99429.41;5057244;28;20025;-74
2021/07/16 00:07:03;;;;;;;8.38;3.15;;;;;;;26.23;48.21;99440.25;5060915;28;20033;-74
2021/07/16 00:09:29;;;;;;;11.30;3.25;;;;;;;26.00;47.96;99414.44;5060161;28;20042;-74
2021/07/16 00:11:54;;;;;;;8.75;3.08;;;;;;;26.13;48.54;99437.53;5062353;28;20310;-74
2021/07/16 00:14:20;;;;;;;14.52;3.72;;;;;;;26.18;48.54;99442.97;5061766;28;20033;-74
2021/07/16 00:16:45;;;;;;;13.90;3.38;;;;;;;26.16;48.48;99436.19;5040895;28;20303;-74
2021/07/16 00:19:11;;;;;;;9.60;3.28;;;;;;;26.25;48.08;99429.13;5060804;28;20037;-74
2021/07/16 00:21:37;;;;;;;12.27;3.75;;;;;;;26.31;47.85;99423.41;5043743;28;20053;-74
2021/07/16 00:24:03;;;;;;;10.45;3.53;;;;;;;26.36;47.85;99420.72;5061833;28;20432;-74
2021/07/16 00:26:29;;;;;;;11.63;4.05;;;;;;;26.27;47.88;99414.19;5059140;28;20039;-74
2021/07/16 00:28:55;;;;;;;9.48;3.22;;;;;;;26.28;47.75;99413.09;5062060;28;20044;-73
2021/07/16 00:31:21;;;;;;;12.05;3.60;;;;;;;26.21;48.41;99419.91;5059561;28;20036;-74
2021/07/16 00:33:46;;;;;;;7.32;3.75;;;;;;;26.22;48.53;99427.78;5061653;28;20037;-73
2021/07/16 00:36:11;;;;;;;15.38;4.10;;;;;;;26.09;48.54;99429.13;5041031;28;20333;-74
2021/07/16 00:38:37;;;;;;;7.65;3.42;;;;;;;26.01;48.90;99426.94;5061571;28;20036;-74
2021/07/16 00:41:03;;;;;;;11.95;3.53;;;;;;;25.96;48.80;99428.81;5059323;28;20239;-74
2021/07/16 00:43:29;;;;;;;8.02;3.40;;;;;;;26.00;48.33;99425.28;5061623;28;20044;-74
2021/07/16 00:45:55;;;;;;;10.27;3.22;;;;;;;25.82;48.68;99414.97;5061446;28;20235;-74
2021/07/16 00:48:20;;;;;;;10.25;3.33;;;;;;;25.96;48.07;99426.09;5060888;28;20037;-74
2021/07/16 00:50:48;;;;;;;12.65;3.85;;;;;;;25.96;48.80;99426.91;5059616;28;20036;-74
2021/07/16 00:53:17;;;;;;;11.27;3.35;;;;;;;25.99;48.27;99434.53;5049715;28;20108;-73
2021/07/16 00:55:43;;;;;;;13.35;4.03;;;;;;;26.02;48.06;99439.44;5035308;28;20373;-73
2021/07/16 00:58:10;;;;;;;10.57;3.38;;;;;;;25.99;48.04;99439.13;5061020;28;20092;-74
2021/07/16 01:00:36;;;;;;;10.65;3.50;;;;;;;25.98;47.84;99430.19;5041863;28;20330;-74
2021/07/16 01:03:01;;;;;;;6.90;3.30;;;;;;;25.85;48.06;99424.47;5040802;28;20032;-74
2021/07/16 01:05:27;;;;;;;7.95;3.28;;;;;;;25.90;48.07;99428.00;5062841;28;20098;-74
2021/07/16 01:07:53;;;;;;;9.88;2.92;;;;;;;25.83;48.30;99419.31;5035135;28;20107;-74
2021/07/16 01:10:21;;;;;;;7.43;3.67;;;;;;;25.71;48.76;99421.47;5058552;28;20048;-74
2021/07/16 01:12:51;;;;;;;9.32;3.50;;;;;;;25.70;49.21;99426.06;5059723;28;20075;-74
2021/07/16 01:15:22;;;;;;;8.07;2.92;;;;;;;25.62;48.91;99421.16;5042219;28;20036;-74
2021/07/16 01:17:47;;;;;;;13.50;4.03;;;;;;;25.64;48.24;99426.31;5057086;28;20025;-74
2021/07/16 01:20:18;;;;;;;10.75;3.70;;;;;;;25.66;48.01;99424.16;5062375;28;20035;-73
2021/07/16 01:22:46;;;;;;;12.07;3.35;;;;;;;25.68;48.51;99424.72;5063393;28;20100;-74
2021/07/16 01:25:18;;;;;;;11.40;3.47;;;;;;;25.64;48.33;99413.56;5058589;28;20060;-74
2021/07/16 01:27:52;;;;;;;8.27;3.03;;;;;;;25.61;48.70;99414.09;5060378;28;20278;-74
2021/07/16 01:30:21;;;;;;;25.20;4.72;;;;;;;25.57;48.92;99404.88;5058914;28;20206;-74
2021/07/16 01:32:48;;;;;;;7.95;3.45;;;;;;;25.56;48.53;99411.38;5060657;28;20369;-73
2021/07/16 01:35:14;;;;;;;7.43;3.30;;;;;;;25.60;48.55;99407.06;5059279;28;20083;-73
2021/07/16 01:37:41;;;;;;;8.63;3.50;;;;;;;25.56;48.55;99407.84;5061157;28;20777;-74
2021/07/16 01:40:16;;;;;;;13.82;3.42;;;;;;;25.50;48.74;99393.47;5043485;28;20029;-73
2021/07/16 01:42:44;;;;;;;12.07;3.40;;;;;;;25.59;48.56;99410.84;5045565;28;20040;-73
2021/07/16 01:45:13;;;;;;;7.57;3.78;;;;;;;25.59;48.28;99410.84;5062617;28;20127;-74
2021/07/16 01:47:43;;;;;;;9.98;3.13;;;;;;;25.50;48.68;99414.34;5061092;28;20048;-74
2021/07/16 01:50:09;;;;;;;8.43;3.28;;;;;;;25.41;48.92;99401.31;5062139;28;20045;-74
2021/07/16 01:52:35;;;;;;;8.52;3.88;;;;;;;25.38;49.24;99406.47;5060177;28;20093;-74
2021/07/16 01:55:03;;;;;;;23.30;3.97;;;;;;;25.49;49.11;99416.25;5037760;28;20033;-74
2021/07/16 01:57:28;;;;;;;9.13;3.75;;;;;;;25.49;48.99;99412.72;5036475;28;20108;-74
2021/07/16 01:59:54;;;;;;;9.98;3.50;;;;;;;25.44;49.06;99416.22;5045611;28;20215;-74
2021/07/16 02:02:19;;;;;;;9.98;3.80;;;;;;;25.42;49.31;99411.06;5042971;28;20021;-74
2021/07/16 02:04:45;;;;;;;13.38;3.70;;;;;;;25.45;49.15;99415.16;5062746;28;20040;-73
2021/07/16 02:07:10;;;;;;;13.20;3.72;;;;;;;25.45;48.98;99415.16;5063727;28;20032;-74
2021/07/16 02:09:36;;;;;;;11.40;3.78;;;;;;;25.30;49.29;99417.81;5024110;28;20049;-74
2021/07/16 02:12:02;;;;;;;12.23;4.07;;;;;;;25.18;49.86;99419.94;5021856;28;20060;-74
2021/07/16 02:14:28;;;;;;;11.85;3.60;;;;;;;24.91;50.30;99409.22;5021557;28;20030;-74
2021/07/16 02:16:55;;;;;;;14.32;4.03;;;;;;;24.94;50.60;99419.50;5024265;28;20418;-74
2021/07/16 02:19:21;;;;;;;9.15;3.58;;;;;;;24.93;50.62;99417.88;5024426;28;20061;-74
2021/07/16 02:21:47;;;;;;;5.15;3.58;;;;;;;24.80;50.75;99416.47;5021958;28;20036;-74
2021/07/16 02:24:13;;;;;;;18.48;3.50;;;;;;;24.86;50.63;99418.13;5023208;28;20046;-73
2021/07/16 02:26:39;;;;;;;11.85;4.10;;;;;;;24.82;50.81;99417.00;5020749;28;20029;-74
2021/07/16 02:29:05;;;;;;;9.20;3.95;;;;;;;24.80;51.19;99414.56;5023644;28;20025;-74
2021/07/16 02:31:31;;;;;;;21.15;4.60;;;;;;;24.76;51.41;99410.75;5023824;28;20026;-73
2021/07/16 02:33:57;;;;;;;14.45;3.90;;;;;;;24.75;51.35;99403.72;5020602;28;20041;-74
2021/07/16 02:36:23;;;;;;;9.52;4.10;;;;;;;24.57;51.90;99401.44;5019630;28;20200;-74
2021/07/16 02:38:49;;;;;;;24.30;4.95;;;;;;;24.32;53.08;99412.09;5024738;28;20028;-74
2021/07/16 02:41:15;;;;;;;15.95;4.30;;;;;;;24.39;53.12;99423.53;5023142;28;20303;-73
2021/07/16 02:43:40;;;;;;;12.90;4.45;;;;;;;24.49;52.73;99410.88;5019593;28;20510;-74
2021/07/16 02:46:06;;;;;;;19.73;4.47;;;;;;;24.51;52.55;99414.13;5021585;28;20354;-74
2021/07/16 02:48:31;;;;;;;12.95;5.18;;;;;;;24.46;52.86;99418.69;5021863;28;20084;-73
2021/07/16 02:50:57;;;;;;;11.00;4.25;;;;;;;24.26;53.53;99413.13;5020298;28;20037;-74
2021/07/16 02:53:23;;;;;;;14.35;4.40;;;;;;;24.07;54.41;99418.94;5018799;28;20060;-73
2021/07/16 02:55:50;;;;;;;17.17;4.40;;;;;;;23.93;55.02;99409.59;5022147;28;20359;-73
2021/07/16 02:58:16;;;;;;;12.25;4.40;;;;;;;23.99;55.06;99419.41;5020376;28;20247;-74
2021/07/16 03:00:42;;;;;;;13.88;4.57;;;;;;;24.01;54.97;99416.44;5022762;28;20479;-73
2021/07/16 03:03:08;;;;;;;15.07;5.22;;;;;;;23.82;55.14;99405.16;5021060;28;20033;-74
2021/07/16 03:05:35;;;;;;;18.77;4.93;;;;;;;23.70;55.58;99412.59;5020508;28;20105;-73
2021/07/16 03:08:02;;;;;;;22.10;5.00;;;;;;;23.65;55.76;99426.88;5022919;28;20045;-73
2021/07/16 03:10:36;;;;;;;19.80;4.90;;;;;;;23.47;56.36;99417.22;5039444;28;20095;-74
2021/07/16 03:13:07;;;;;;;10.07;4.47;;;;;;;23.53;56.38;99424.31;5042100;28;20037;-73
2021/07/16 03:15:35;;;;;;;12.00;4.78;;;;;;;23.61;56.15;99431.19;5041301;28;20064;-73
2021/07/16 03:18:02;;;;;;;13.80;4.80;;;;;;;23.66;55.97;99433.94;5041266;28;20068;-74
2021/07/16 03:20:30;;;;;;;12.88;4.28;;;;;;;23.78;55.49;99434.59;5042899;28;20041;-73
2021/07/16 03:22:56;;;;;;;17.15;5.00;;;;;;;23.82;55.43;99437.59;5040705;28;20033;-73
2021/07/16 03:25:23;;;;;;;20.30;4.20;;;;;;;23.85;55.66;99435.19;5041837;28;20037;-74
2021/07/16 03:27:50;;;;;;;9.13;4.45;;;;;;;23.87;55.87;99437.66;5040624;28;20098;-73
2021/07/16 03:30:35;;;;;;;11.55;4.30;;;;;;;23.91;55.50;99443.34;5042612;28;20223;-73
2021/07/16 03:33:01;;;;;;;8.93;4.88;;;;;;;23.92;55.16;99451.22;5042451;28;20328;-74
2021/07/16 03:35:27;;;;;;;16.02;4.63;;;;;;;23.95;54.78;99444.50;5040507;28;20033;-74
2021/07/16 03:37:54;;;;;;;11.45;4.20;;;;;;;24.09;54.76;99446.53;5040784;28;20048;-74
2021/07/16 03:40:27;;;;;;;22.35;5.22;;;;;;;24.23;54.23;99446.09;5040514;28;20033;-74
2021/07/16 03:42:53;;;;;;;17.95;4.82;;;;;;;24.27;54.00;99449.94;5054921;28;20018;-74
2021/07/16 03:45:19;;;;;;;21.75;5.70;;;;;;;24.27;54.25;99458.88;5042872;28;20042;-73
2021/07/16 03:47:47;;;;;;;21.45;5.10;;;;;;;24.32;54.58;99458.09;5039805;28;20315;-74
2021/07/16 03:50:15;;;;;;;16.23;4.68;;;;;;;24.39;54.49;99461.41;5041288;28;20041;-74
2021/07/16 03:52:41;;;;;;;17.02;4.57;;;;;;;24.44;54.40;99461.44;5038912;28;20337;-73
2021/07/16 03:55:09;;;;;;;15.70;4.28;;;;;;;24.45;53.74;99469.31;5039131;28;20048;-74
2021/07/16 03:57:35;;;;;;;16.27;4.00;;;;;;;24.62;53.87;99460.22;5033942;28;20311;-73
2021/07/16 04:00:05;;;;;;;17.13;5.20;;;;;;;24.59;54.13;99469.69;5039741;28;20048;-74
2021/07/16 04:02:32;;;;;;;18.38;5.03;;;;;;;24.47;55.05;99469.03;5038790;28;20051;-74
2021/07/16 04:04:57;;;;;;;18.92;5.53;;;;;;;24.49;56.29;99462.28;5039822;28;20025;-74
2021/07/16 04:07:27;;;;;;;15.57;4.57;;;;;;;24.57;55.88;99461.00;5032362;28;20103;-74
2021/07/16 04:09:53;;;;;;;15.30;5.07;;;;;;;24.63;55.44;99461.84;5057720;28;20087;-74
2021/07/16 04:12:19;;;;;;;15.27;5.60;;;;;;;24.65;55.70;99465.13;5061213;28;20031;-74
2021/07/16 04:14:47;;;;;;;14.75;4.88;;;;;;;24.66;56.72;99447.78;5058715;28;20032;-73
2021/07/16 04:17:15;;;;;;;13.32;5.32;;;;;;;24.71;56.69;99453.25;5056882;28;20111;-74
2021/07/16 04:19:42;;;;;;;11.77;5.45;;;;;;;24.79;57.40;99450.03;5059240;28;20294;-74
2021/07/16 04:22:08;;;;;;;11.15;5.03;;;;;;;24.82;57.89;99431.38;5060334;28;20048;-73
2021/07/16 04:24:35;;;;;;;18.10;5.15;;;;;;;24.84;57.02;99440.03;5060486;28;20035;-73
2021/07/16 04:27:01;;;;;;;13.77;5.38;;;;;;;24.94;55.55;99452.81;5043011;28;21694;-74
2021/07/16 04:29:27;;;;;;;12.15;4.43;;;;;;;25.06;51.59;99439.94;5057925;28;20032;-74
2021/07/16 04:31:52;;;;;;;13.48;4.25;;;;;;;25.35;51.84;99450.34;5061937;28;20029;-74
2021/07/16 04:34:18;;;;;;;10.40;4.53;;;;;;;25.74;51.02;99453.47;5057145;28;20040;-74
2021/07/16 04:36:45;;;;;;;26.55;4.70;;;;;;;25.94;49.19;99452.69;5061227;28;20199;-74
2021/07/16 04:39:10;;;;;;;14.63;4.68;;;;;;;26.15;49.20;99457.06;5059050;28;20104;-74
2021/07/16 04:41:36;;;;;;;11.15;4.90;;;;;;;26.27;49.66;99446.75;5060290;28;20023;-74
2021/07/16 04:44:01;;;;;;;18.75;5.13;;;;;;;26.50;48.73;99463.59;5059256;28;20039;-74
2021/07/16 04:46:27;;;;;;;18.02;5.18;;;;;;;26.69;48.18;99461.94;5059410;28;20029;-74
2021/07/16 04:48:55;;;;;;;18.67;5.18;;;;;;;26.92;46.88;99457.81;5057877;28;20041;-75
2021/07/16 04:51:31;;;;;;;10.60;4.80;;;;;;;27.15;46.36;99453.72;5060310;28;20276;-74
2021/07/16 04:53:58;;;;;;;20.02;4.90;;;;;;;27.55;44.86;99461.69;5058600;28;20037;-74
2021/07/16 04:56:25;;;;;;;12.25;4.75;;;;;;;27.71;44.88;99439.88;5041489;28;20048;-74
2021/07/16 04:58:51;;;;;;;17.17;4.88;;;;;;;28.17;43.64;99460.25;5062401;28;20032;-74
2021/07/16 05:01:17;;;;;;;9.43;4.72;;;;;;;28.44;43.01;99465.22;5035687;28;20028;-74
2021/07/16 05:03:43;;;;;;;20.15;5.70;;;;;;;28.75;42.06;99465.75;5059963;28;20035;-74
2021/07/16 05:06:11;;;;;;;16.20;5.10;;;;;;;29.08;41.05;99460.50;5057906;28;20406;-74
2021/07/16 05:08:38;;;;;;;11.32;4.80;;;;;;;29.36;40.67;99459.63;5039855;28;20049;-74
2021/07/16 05:11:04;;;;;;;11.88;4.75;;;;;;;29.61;40.48;99450.34;5037760;28;20064;-74
2021/07/16 05:13:31;;;;;;;12.90;5.25;;;;;;;30.01;39.33;99459.03;5021778;28;20598;-74
2021/07/16 05:15:57;;;;;;;13.77;5.75;;;;;;;30.32;38.53;99456.66;5020120;28;20042;-74
2021/07/16 05:18:22;;;;;;;25.60;6.57;;;;;;;30.03;38.35;99445.91;5029969;28;20048;-74
2021/07/16 05:20:47;;;;;;;19.05;6.25;;;;;;;29.97;38.85;99442.41;5019296;28;20029;-74
2021/07/16 05:23:13;;;;;;;22.38;6.22;;;;;;;30.28;37.61;99451.00;5041223;28;20307;-74
2021/07/16 05:25:39;;;;;;;12.95;5.80;;;;;;;30.47;37.35;99449.00;5034296;28;20048;-74
2021/07/16 05:28:04;;;;;;;19.02;6.90;;;;;;;30.59;37.64;99454.03;5020707;28;20080;-74
2021/07/16 05:30:30;;;;;;;18.15;6.60;;;;;;;30.49;37.04;99435.06;5022229;28;20036;-74
2021/07/16 05:32:55;;;;;;;23.25;6.40;;;;;;;30.79;37.17;99439.97;5040275;28;20037;-74
2021/07/16 05:35:21;;;;;;;18.92;6.10;;;;;;;30.55;37.72;99442.03;5041624;28;20242;-74
2021/07/16 05:37:47;;;;;;;20.77;7.25;;;;;;;30.48;37.99;99447.09;5024370;28;20392;-74
2021/07/16 05:40:14;;;;;;;25.00;7.80;;;;;;;30.37;36.86;99449.19;5021915;28;20033;-74
2021/07/16 05:42:39;;;;;;;21.98;7.38;;;;;;;30.25;37.76;99451.59;5022327;28;20034;-74
2021/07/16 05:45:05;;;;;;;20.88;7.47;;;;;;;30.27;38.01;99445.81;5041775;28;20060;-74
2021/07/16 05:47:31;;;;;;;15.85;6.30;;;;;;;30.45;37.65;99443.03;5040431;28;20112;-74
2021/07/16 05:49:56;;;;;;;15.13;7.47;;;;;;;30.31;38.17;99430.47;5041554;28;20349;-74
2021/07/16 05:52:24;;;;;;;19.63;7.35;;;;;;;30.73;36.53;99437.66;5041902;28;20319;-74
2021/07/16 05:54:51;;;;;;;25.58;6.97;;;;;;;30.81;36.75;99415.88;5024224;28;20033;-74
2021/07/16 05:57:16;;;;;;;19.63;6.93;;;;;;;30.88;35.50;99440.09;5021926;28;20038;-74
2021/07/16 05:59:42;;;;;;;22.58;7.63;;;;;;;30.61;37.60;99438.13;5020706;28;20227;-74
2021/07/16 06:02:09;;;;;;;18.60;7.10;;;;;;;30.68;36.43;99438.56;5041805;28;20026;-74
2021/07/16 06:04:35;;;;;;;29.85;8.27;;;;;;;30.84;36.72;99435.53;5041290;28;20204;-74
2021/07/16 06:07:00;;;;;;;27.45;9.07;;;;;;;30.99;36.63;99444.25;5041780;28;20108;-74
2021/07/16 06:09:25;;;;;;;17.33;8.00;;;;;;;30.96;35.66;99444.03;5035397;28;20046;-74
2021/07/16 06:11:51;;;;;;;17.58;6.90;;;;;;;30.72;35.57;99442.31;5035486;28;20029;-74
2021/07/16 06:14:18;;;;;;;18.63;7.85;;;;;;;30.37;36.95;99441.00;5039583;28;20037;-74
2021/07/16 06:16:44;;;;;;;16.42;6.63;;;;;;;30.82;35.28;99435.84;5040203;28;20049;-74
2021/07/16 06:19:09;;;;;;;16.77;6.53;;;;;;;31.29;34.77;99440.13;5038247;28;20044;-74
2021/07/16 06:21:35;;;;;;;15.73;6.35;;;;;;;31.69;34.98;99438.44;5040650;28;20021;-74
2021/07/16 06:24:00;;;;;;;24.38;6.20;;;;;;;31.93;33.83;99435.41;5038902;28;20044;-74
2021/07/16 06:26:26;;;;;;;14.63;6.82;;;;;;;31.72;33.58;99420.59;5040431;28;20037;-74
2021/07/16 06:28:51;;;;;;;15.98;6.72;;;;;;;32.03;33.47;99437.09;5044823;28;20092;-74
2021/07/16 06:31:16;;;;;;;24.92;5.55;;;;;;;32.63;33.37;99442.19;5042755;28;20040;-74
2021/07/16 06:33:42;;;;;;;16.88;5.43;;;;;;;32.79;32.24;99439.88;5043325;28;20029;-74
2021/07/16 06:36:07;;;;;;;22.17;6.00;;;;;;;32.55;32.04;99435.53;5041397;28;20025;-74
2021/07/16 06:38:33;;;;;;;11.77;5.38;;;;;;;33.09;30.78;99430.78;5040668;28;20021;-74
2021/07/16 06:40:58;;;;;;;14.68;4.78;;;;;;;32.59;32.12;99411.88;5042077;28;20035;-74
2021/07/16 06:43:24;;;;;;;12.25;4.07;;;;;;;33.00;29.55;99421.72;5041679;28;20227;-74
2021/07/16 06:45:49;;;;;;;16.35;4.22;;;;;;;32.60;30.60;99429.13;5042703;28;20063;-74
2021/07/16 06:48:15;;;;;;;12.82;4.05;;;;;;;32.54;29.46;99428.44;5035674;28;20029;-74
2021/07/16 06:50:40;;;;;;;12.93;3.63;;;;;;;32.64;29.24;99435.59;5043642;28;20055;-74
2021/07/16 06:53:06;;;;;;;15.40;3.67;;;;;;;32.54;29.08;99425.72;5043303;28;20040;-74
2021/07/16 06:55:31;;;;;;;13.05;3.83;;;;;;;31.85;28.49;99414.25;5041277;28;20044;-75
2021/07/16 06:57:57;;;;;;;11.77;4.18;;;;;;;31.97;30.09;99419.16;5043103;28;20021;-74
2021/07/16 07:00:23;;;;;;;11.48;3.70;;;;;;;32.18;29.11;99408.50;5041217;28;20025;-74
2021/07/16 07:02:48;;;;;;;9.68;3.50;;;;;;;32.04;28.79;99422.28;5042527;28;20364;-74
2021/07/16 07:05:14;;;;;;;10.60;4.07;;;;;;;32.08;28.14;99418.59;5040609;28;20308;-74
2021/07/16 07:07:39;;;;;;;13.43;3.40;;;;;;;32.07;28.16;99419.72;5042970;28;20025;-74
2021/07/16 07:10:05;;;;;;;9.38;3.80;;;;;;;31.55;30.05;99401.25;5062420;28;20323;-74
2021/07/16 07:12:31;;;;;;;8.23;3.53;;;;;;;31.59;30.85;99405.81;5060823;28;20075;-74
2021/07/16 07:14:57;;;;;;;9.73;4.13;;;;;;;31.75;31.22;99414.50;5048815;28;20265;-74
2021/07/16 07:17:22;;;;;;;6.15;3.90;;;;;;;31.80;31.43;99397.94;5060421;28;20518;-74
2021/07/16 07:19:48;;;;;;;10.48;4.10;;;;;;;31.47;31.31;99410.19;5062047;28;20320;-74
2021/07/16 07:22:13;;;;;;;6.43;3.85;;;;;;;32.23;31.01;99400.16;5043565;28;20029;-74
2021/07/16 07:24:39;;;;;;;8.00;4.68;;;;;;;31.94;31.18;99409.66;5061385;28;20035;-74
2021/07/16 07:27:04;;;;;;;11.45;4.60;;;;;;;32.00;30.86;99402.13;5061515;28;20047;-74
2021/07/16 07:29:33;;;;;;;13.32;5.07;;;;;;;31.83;30.70;99397.31;5058501;28;20245;-74
2021/07/16 07:31:59;;;;;;;8.82;4.57;;;;;;;31.96;31.13;99398.38;5057233;28;20059;-74
2021/07/16 07:34:25;;;;;;;15.88;4.30;;;;;;;32.35;29.78;99393.03;5061997;28;20032;-73
2021/07/16 07:36:51;;;;;;;6.97;4.63;;;;;;;32.45;30.05;99382.94;5028227;28;20029;-73
2021/07/16 07:39:18;;;;;;;13.10;4.20;;;;;;;31.99;30.85;99387.63;5059776;28;20279;-73
2021/07/16 07:41:46;;;;;;;14.10;4.57;;;;;;;31.93;31.09;99391.59;5061817;28;20318;-73
2021/07/16 07:44:16;;;;;;;18.05;4.50;;;;;;;32.03;32.05;99385.88;5060850;28;20049;-73
2021/07/16 07:46:43;;;;;;;14.20;4.35;;;;;;;32.39;31.14;99382.25;5061770;28;20029;-73
2021/07/16 07:49:10;;;;;;;13.23;4.35;;;;;;;32.46;29.30;99387.28;5060471;28;20061;-73
2021/07/16 07:51:37;;;;;;;14.05;4.43;;;;;;;32.70;31.31;99393.19;5042321;28;20062;-73
2021/07/16 07:54:03;;;;;;;12.88;4.60;;;;;;;32.62;29.62;99383.81;5059170;28;20027;-72
2021/07/16 07:56:32;;;;;;;17.90;4.97;;;;;;;32.81;30.34;99391.00;5044475;28;20028;-74
2021/07/16 07:58:58;;;;;;;14.23;4.32;;;;;;;32.95;29.34;99386.22;5057798;28;20033;-75
2021/07/16 08:01:24;;;;;;;16.08;4.22;;;;;;;32.63;30.34;99390.13;5061521;28;20052;-73
2021/07/16 08:03:51;;;;;;;10.68;4.05;;;;;;;32.66;29.86;99382.06;5062748;28;20051;-73
2021/07/16 08:06:17;;;;;;;13.85;4.07;;;;;;;32.62;29.42;99383.81;5059668;28;20032;-73
2021/07/16 08:08:43;;;;;;;10.30;3.92;;;;;;;32.88;29.51;99377.66;5029450;28;20076;-73
2021/07/16 08:11:09;;;;;;;10.50;4.45;;;;;;;33.48;29.52;99352.28;5059787;28;20028;-73
2021/07/16 08:13:34;;;;;;;13.77;4.05;;;;;;;33.25;29.18;99363.34;5059938;28;20060;-73
2021/07/16 08:16:01;;;;;;;12.27;4.50;;;;;;;32.95;28.82;99376.06;5062718;28;20048;-73
2021/07/16 08:18:27;;;;;;;15.82;4.75;;;;;;;32.67;31.34;99380.94;5059666;28;20036;-73
2021/07/16 08:20:52;;;;;;;12.27;3.67;;;;;;;32.51;30.05;99376.19;5059818;28;20039;-73
2021/07/16 08:23:18;;;;;;;9.88;3.75;;;;;;;32.61;30.59;99379.47;5061566;28;20036;-73
2021/07/16 08:25:43;;;;;;;12.30;3.55;;;;;;;32.24;28.74;99361.53;5059451;28;20035;-73
2021/07/16 08:28:09;;;;;;;35.53;5.18;;;;;;;32.49;31.19;99373.78;5060447;28;20043;-73
2021/07/16 08:30:34;;;;;;;8.25;3.80;;;;;;;32.37;29.65;99373.56;5061475;28;20401;-73
2021/07/16 08:33:00;;;;;;;12.25;3.65;;;;;;;32.19;30.08;99358.91;5057696;28;20103;-73
2021/07/16 08:35:25;;;;;;;9.15;3.70;;;;;;;32.64;28.60;99365.13;5061079;28;20253;-73
2021/07/16 08:37:51;;;;;;;9.82;3.95;;;;;;;33.06;28.61;99359.28;5041788;28;20184;-73
2021/07/16 08:40:16;;;;;;;10.52;3.80;;;;;;;33.11;28.48;99362.69;5060354;28;20047;-73
2021/07/16 08:42:46;;;;;;;21.17;4.45;;;;;;;33.03;28.47;99352.50;5058181;28;20033;-73
2021/07/16 08:45:12;;;;;;;9.15;4.43;;;;;;;33.19;29.31;99352.84;5061557;28;20203;-73
2021/07/16 08:47:38;;;;;;;9.88;4.20;;;;;;;32.81;29.94;99355.38;5056622;28;20037;-73
2021/07/16 08:50:07;;;;;;;14.68;4.43;;;;;;;32.96;29.07;99358.47;5038710;28;20032;-73
2021/07/16 08:52:33;;;;;;;9.95;3.63;;;;;;;33.20;30.75;99354.47;5058214;28;20283;-73
2021/07/16 08:55:00;;;;;;;8.65;4.13;;;;;;;32.83;30.67;99355.84;5062450;28;20016;-72
2021/07/16 08:57:27;;;;;;;12.23;4.82;;;;;;;32.99;30.09;99348.78;5059052;28;20033;-73
2021/07/16 08:59:53;;;;;;;10.38;4.70;;;;;;;33.11;31.20;99359.13;5041888;28;20226;-74
2021/07/16 09:02:19;;;;;;;11.88;4.75;;;;;;;33.28;29.50;99328.97;5041146;28;20033;-73
2021/07/16 09:04:45;;;;;;;11.50;4.78;;;;;;;33.64;29.08;99335.00;5031839;28;20025;-73
2021/07/16 09:07:10;;;;;;;15.32;4.55;;;;;;;33.98;28.76;99330.59;5059239;28;20040;-73
2021/07/16 09:09:37;;;;;;;10.93;4.15;;;;;;;33.92;29.36;99329.16;5059284;28;20033;-73
2021/07/16 09:12:11;;;;;;;12.15;4.60;;;;;;;33.27;29.32;99319.94;5058408;28;20032;-73
2021/07/16 09:14:36;;;;;;;;;;;;;;;33.38;28.92;99320.50;5059721;28;20040;-73
2021/07/16 09:17:04;;;;;;;11.50;4.63;;;;;;;33.97;29.22;99318.00;5058516;28;20097;-73
2021/07/16 09:19:47;;;;;;;15.70;4.72;;;;;;;34.00;29.55;99306.38;5035056;28;20035;-73
2021/07/16 09:22:14;;;;;;;10.07;4.30;;;;;;;33.74;28.75;99313.84;5058656;28;20259;-73
2021/07/16 09:24:43;;;;;;;11.63;4.40;;;;;;;33.14;29.49;99320.91;5059674;28;20215;-73
2021/07/16 09:27:39;;;;;;;11.45;4.60;;;;;;;33.47;29.72;99315.81;5059558;28;20346;-73
2021/07/16 09:30:14;;;;;;;13.13;4.47;;;;;;;33.45;29.68;99314.50;5058929;28;20326;-73
2021/07/16 09:32:53;;;;;;;17.42;5.40;;;;;;;33.59;28.66;99301.41;5060404;28;20362;-73
2021/07/16 09:35:24;;;;;;;8.10;3.88;;;;;;;33.59;28.28;99302.22;5058398;28;20036;-73
2021/07/16 09:37:59;;;;;;;17.98;4.45;;;;;;;33.16;29.70;99302.19;5060147;28;20147;-72
2021/07/16 09:40:28;;;;;;;9.70;4.25;;;;;;;33.08;29.43;99294.75;5057166;28;20032;-75
2021/07/16 09:43:06;;;;;;;7.90;4.65;;;;;;;33.33;29.26;99297.88;5059604;28;20032;-73
2021/07/16 09:45:33;;;;;;;16.20;5.03;;;;;;;33.10;29.85;99297.19;5062062;28;20322;-73
2021/07/16 09:48:36;;;;;;;25.38;5.85;;;;;;;32.77;30.03;99300.38;5056408;28;20033;-73
2021/07/16 09:51:13;;;;;;;12.13;5.32;;;;;;;32.95;30.62;99285.56;5041697;28;20104;-73
2021/07/16 09:53:49;;;;;;;13.88;4.97;;;;;;;32.73;30.97;99284.84;5028577;28;20396;-73
2021/07/16 09:56:18;;;;;;;8.73;4.80;;;;;;;32.79;30.50;99278.09;5061197;28;20021;-73
2021/07/16 09:58:45;;;;;;;12.00;5.25;;;;;;;32.81;29.83;99275.84;5058020;28;20337;-73
2021/07/16 10:01:11;;;;;;;11.77;4.85;;;;;;;32.70;30.80;99281.59;5062308;28;20061;-73
2021/07/16 10:03:40;;;;;;;13.93;5.00;;;;;;;32.26;30.99;99273.59;5062183;28;20327;-73
2021/07/16 10:06:11;;;;;;;15.23;4.45;;;;;;;32.54;30.35;99269.47;5063191;28;20061;-73
2021/07/16 10:08:38;;;;;;;14.63;4.43;;;;;;;32.55;32.16;99268.34;5059551;28;20326;-73
2021/07/16 10:11:07;;;;;;;17.42;4.40;;;;;;;32.77;29.53;99261.16;5044555;28;20036;-73
2021/07/16 10:13:35;;;;;;;8.15;4.43;;;;;;;32.88;29.60;99257.00;5064658;28;20032;-73
2021/07/16 10:16:02;;;;;;;7.95;3.83;;;;;;;32.99;29.90;99267.31;5061321;28;20360;-72
2021/07/16 10:18:28;;;;;;;13.45;3.90;;;;;;;32.77;29.89;99256.50;5063840;28;20231;-73
2021/07/16 10:20:55;;;;;;;14.02;4.43;;;;;;;32.87;28.95;99253.44;5062410;28;20088;-73
2021/07/16 10:23:21;;;;;;;6.18;3.88;;;;;;;32.97;28.31;99244.09;5059486;28;20060;-73
2021/07/16 10:25:49;;;;;;;12.98;4.43;;;;;;;33.04;29.65;99235.38;5060709;28;20047;-73
2021/07/16 10:28:40;;;;;;;11.05;3.92;;;;;;;32.96;29.27;99246.03;5061673;28;20326;-73
2021/07/16 10:31:28;;;;;;;10.98;4.25;;;;;;;32.82;29.93;99241.81;5052137;28;20291;-72
2021/07/16 10:34:14;;;;;;;14.15;6.95;;;;;;;32.82;31.29;99247.31;5062537;28;20104;-73
2021/07/16 10:36:45;;;;;;;9.75;4.93;;;;;;;32.66;29.79;99225.00;5051347;28;20395;-72
2021/07/16 10:39:13;;;;;;;17.77;4.13;;;;;;;32.80;29.26;99242.16;5056231;28;20036;-72
2021/07/16 10:41:41;;;;;;;6.05;3.50;;;;;;;32.66;29.63;99236.78;5061418;28;20066;-74
2021/07/16 10:44:14;;;;;;;10.98;3.97;;;;;;;32.75;29.71;99235.97;5062178;28;20290;-75
2021/07/16 10:46:44;;;;;;;7.65;3.28;;;;;;;32.80;28.27;99222.94;5061123;28;20032;-73
2021/07/16 10:49:12;;;;;;;8.43;3.53;;;;;;;32.68;29.41;99218.06;5060715;28;20033;-72
2021/07/16 10:51:39;;;;;;;12.77;3.72;;;;;;;32.81;31.16;99218.28;5048219;28;20037;-73
2021/07/16 10:54:10;;;;;;;8.80;3.70;;;;;;;32.92;28.91;99203.13;5044596;28;20064;-73
2021/07/16 10:56:43;;;;;;;9.82;3.13;;;;;;;32.89;29.10;99206.50;5059105;28;20020;-73
2021/07/16 10:59:11;;;;;;;12.70;3.65;;;;;;;32.95;28.43;99205.22;5059070;28;20124;-73
2021/07/16 11:01:40;;;;;;;16.95;3.60;;;;;;;32.74;28.48;99206.94;5064130;28;20095;-73
2021/07/16 11:04:07;;;;;;;9.23;3.60;;;;;;;32.61;29.01;99204.03;5038027;28;20452;-72
2021/07/16 11:06:52;;;;;;;6.93;3.60;;;;;;;32.89;28.53;99190.84;5061207;28;20021;-73
2021/07/16 11:09:43;;;;;;;11.20;3.50;;;;;;;32.97;30.14;99186.50;5057158;28;20056;-73
2021/07/16 11:12:18;;;;;;;8.05;3.30;;;;;;;32.96;29.31;99184.88;5060565;28;20044;-73
2021/07/16 11:14:44;;;;;;;12.70;3.53;;;;;;;33.01;28.75;99180.03;5044588;28;20021;-72
2021/07/16 11:17:23;;;;;;;11.15;3.80;;;;;;;33.10;28.41;99180.03;5035267;28;20323;-72
2021/07/16 11:20:18;;;;;;;9.95;3.65;;;;;;;33.12;28.87;99169.53;5063060;28;20032;-72
2021/07/16 11:22:55;;;;;;;16.77;4.15;;;;;;;33.00;28.98;99183.09;5058444;28;20318;-73
2021/07/16 11:25:21;;;;;;;7.72;3.60;;;;;;;32.95;27.81;99178.59;5057788;28;20337;-73
2021/07/16 11:27:46;;;;;;;13.13;3.40;;;;;;;32.83;28.97;99174.88;5062278;28;20033;-72
2021/07/16 11:30:12;;;;;;;8.50;3.80;;;;;;;32.84;30.07;99163.59;5061880;28;20330;-73